sensor_id;sensor_type;location;lat;lon;timestamp;P1;durP1;ratioP1;P2;durP2;ratioP2
59145;SDS011;44928;53.074;6.646;2023-05-27T00:00:02;11.52;;;4.07;;
59145;SDS011;44928;53.074;6.646;2023-05-27T00:02:29;14.23;;;3.75;;
59145;SDS011;44928;53.074;6.646;2023-05-27T00:04:55;12.80;;;3.72;;
59145;SDS011;44928;53.074;6.646;2023-05-27T00:07:20;12.95;;;3.60;;
59145;SDS011;44928;53.074;6.646;2023-05-27T00:09:46;13.43;;;4.18;;
59145;SDS011;44928;53.074;6.646;2023-05-27T00:12:12;12.05;;;4.20;;
59145;SDS011;44928;53.074;6.646;2023-05-27T00:14:38;14.15;;;4.40;;
59145;SDS011;44928;53.074;6.646;2023-05-27T00:17:04;12.10;;;4.25;;
59145;SDS011;44928;53.074;6.646;2023-05-27T00:19:30;13.52;;;4.15;;
59145;SDS011;44928;53.074;6.646;2023-05-27T00:21:56;9.50;;;3.80;;
59145;SDS011;44928;53.074;6.646;2023-05-27T00:24:22;10.50;;;3.33;;
59145;SDS011;44928;53.074;6.646;2023-05-27T00:26:48;11.68;;;3.72;;
59145;SDS011;44928;53.074;6.646;2023-05-27T00:29:17;13.43;;;3.60;;
59145;SDS011;44928;53.074;6.646;2023-05-27T00:31:43;11.65;;;3.67;;
59145;SDS011;44928;53.074;6.646;2023-05-27T00:34:09;12.05;;;3.70;;
59145;SDS011;44928;53.074;6.646;2023-05-27T00:36:34;12.05;;;4.10;;
59145;SDS011;44928;53.074;6.646;2023-05-27T00:39:00;10.95;;;3.50;;
59145;SDS011;44928;53.074;6.646;2023-05-27T00:41:26;13.07;;;3.65;;
59145;SDS011;44928;53.074;6.646;2023-05-27T00:43:53;12.85;;;3.15;;
59145;SDS011;44928;53.074;6.646;2023-05-27T00:46:20;9.82;;;2.20;;
59145;SDS011;44928;53.074;6.646;2023-05-27T00:48:46;10.27;;;2.35;;
59145;SDS011;44928;53.074;6.646;2023-05-27T00:51:13;10.50;;;2.80;;
59145;SDS011;44928;53.074;6.646;2023-05-27T00:53:40;10.52;;;3.72;;
59145;SDS011;44928;53.074;6.646;2023-05-27T00:56:07;12.70;;;3.40;;
59145;SDS011;44928;53.074;6.646;2023-05-27T00:58:38;9.80;;;3.00;;
59145;SDS011;44928;53.074;6.646;2023-05-27T01:01:04;10.60;;;3.00;;
59145;SDS011;44928;53.074;6.646;2023-05-27T01:03:30;11.45;;;2.83;;
59145;SDS011;44928;53.074;6.646;2023-05-27T01:06:43;9.07;;;2.70;;
59145;SDS011;44928;53.074;6.646;2023-05-27T01:11:15;10.57;;;3.22;;
59145;SDS011;44928;53.074;6.646;2023-05-27T01:13:52;11.70;;;3.53;;
59145;SDS011;44928;53.074;6.646;2023-05-27T01:16:26;9.27;;;3.13;;
59145;SDS011;44928;53.074;6.646;2023-05-27T01:18:55;10.07;;;3.30;;
59145;SDS011;44928;53.074;6.646;2023-05-27T01:21:24;11.43;;;3.05;;
59145;SDS011;44928;53.074;6.646;2023-05-27T01:24:01;9.40;;;3.00;;
59145;SDS011;44928;53.074;6.646;2023-05-27T01:26:28;10.07;;;3.38;;
59145;SDS011;44928;53.074;6.646;2023-05-27T01:28:54;8.93;;;3.13;;
59145;SDS011;44928;53.074;6.646;2023-05-27T01:31:25;12.38;;;3.70;;
59145;SDS011;44928;53.074;6.646;2023-05-27T01:34:02;10.40;;;3.35;;
59145;SDS011;44928;53.074;6.646;2023-05-27T01:36:33;12.55;;;3.92;;
59145;SDS011;44928;53.074;6.646;2023-05-27T01:39:03;10.25;;;3.28;;
59145;SDS011;44928;53.074;6.646;2023-05-27T01:41:31;9.27;;;2.92;;
59145;SDS011;44928;53.074;6.646;2023-05-27T01:43:58;8.65;;;3.28;;
59145;SDS011;44928;53.074;6.646;2023-05-27T01:46:24;10.30;;;3.20;;
59145;SDS011;44928;53.074;6.646;2023-05-27T01:48:50;10.00;;;3.25;;
59145;SDS011;44928;53.074;6.646;2023-05-27T01:51:16;8.82;;;2.53;;
59145;SDS011;44928;53.074;6.646;2023-05-27T01:53:42;10.77;;;3.15;;
59145;SDS011;44928;53.074;6.646;2023-05-27T01:56:08;11.02;;;3.00;;
59145;SDS011;44928;53.074;6.646;2023-05-27T01:58:33;7.43;;;2.38;;
59145;SDS011;44928;53.074;6.646;2023-05-27T02:00:59;8.15;;;2.83;;
59145;SDS011;44928;53.074;6.646;2023-05-27T02:03:25;7.60;;;2.30;;
59145;SDS011;44928;53.074;6.646;2023-05-27T02:05:52;7.97;;;2.63;;
59145;SDS011;44928;53.074;6.646;2023-05-27T02:08:17;8.25;;;2.60;;
59145;SDS011;44928;53.074;6.646;2023-05-27T02:10:43;9.63;;;2.58;;
59145;SDS011;44928;53.074;6.646;2023-05-27T02:13:09;6.28;;;1.92;;
59145;SDS011;44928;53.074;6.646;2023-05-27T02:15:35;9.85;;;2.70;;
59145;SDS011;44928;53.074;6.646;2023-05-27T02:18:00;12.20;;;3.50;;
59145;SDS011;44928;53.074;6.646;2023-05-27T02:20:26;10.38;;;2.97;;
59145;SDS011;44928;53.074;6.646;2023-05-27T02:22:52;8.82;;;2.70;;
59145;SDS011;44928;53.074;6.646;2023-05-27T02:25:18;10.48;;;3.22;;
59145;SDS011;44928;53.074;6.646;2023-05-27T02:27:44;10.85;;;3.20;;
59145;SDS011;44928;53.074;6.646;2023-05-27T02:30:14;12.63;;;3.22;;
59145;SDS011;44928;53.074;6.646;2023-05-27T02:32:40;10.13;;;2.83;;
59145;SDS011;44928;53.074;6.646;2023-05-27T02:35:06;11.30;;;3.30;;
59145;SDS011;44928;53.074;6.646;2023-05-27T02:37:32;9.27;;;3.22;;
59145;SDS011;44928;53.074;6.646;2023-05-27T02:39:58;8.68;;;3.28;;
59145;SDS011;44928;53.074;6.646;2023-05-27T02:42:24;10.77;;;3.40;;
59145;SDS011;44928;53.074;6.646;2023-05-27T02:44:50;9.32;;;3.53;;
59145;SDS011;44928;53.074;6.646;2023-05-27T02:47:16;9.77;;;3.13;;
59145;SDS011;44928;53.074;6.646;2023-05-27T02:49:42;12.82;;;4.10;;
59145;SDS011;44928;53.074;6.646;2023-05-27T02:52:07;11.57;;;3.60;;
59145;SDS011;44928;53.074;6.646;2023-05-27T02:54:33;10.70;;;3.80;;
59145;SDS011;44928;53.074;6.646;2023-05-27T02:56:59;10.43;;;4.10;;
59145;SDS011;44928;53.074;6.646;2023-05-27T02:59:25;10.07;;;3.80;;
59145;SDS011;44928;53.074;6.646;2023-05-27T03:01:51;12.48;;;3.90;;
59145;SDS011;44928;53.074;6.646;2023-05-27T03:04:17;13.05;;;4.07;;
59145;SDS011;44928;53.074;6.646;2023-05-27T03:06:43;11.70;;;3.85;;
59145;SDS011;44928;53.074;6.646;2023-05-27T03:09:08;9.15;;;3.90;;
59145;SDS011;44928;53.074;6.646;2023-05-27T03:11:35;10.95;;;3.58;;
59145;SDS011;44928;53.074;6.646;2023-05-27T03:14:00;12.07;;;3.63;;
59145;SDS011;44928;53.074;6.646;2023-05-27T03:16:26;11.88;;;3.47;;
59145;SDS011;44928;53.074;6.646;2023-05-27T03:18:52;11.27;;;4.00;;
59145;SDS011;44928;53.074;6.646;2023-05-27T03:21:17;20.05;;;3.50;;
59145;SDS011;44928;53.074;6.646;2023-05-27T03:23:43;13.55;;;3.08;;
59145;SDS011;44928;53.074;6.646;2023-05-27T03:26:09;12.52;;;3.55;;
59145;SDS011;44928;53.074;6.646;2023-05-27T03:28:34;12.15;;;3.78;;
59145;SDS011;44928;53.074;6.646;2023-05-27T03:31:00;10.32;;;3.22;;
59145;SDS011;44928;53.074;6.646;2023-05-27T03:33:26;14.68;;;4.18;;
59145;SDS011;44928;53.074;6.646;2023-05-27T03:35:52;13.52;;;4.13;;
59145;SDS011;44928;53.074;6.646;2023-05-27T03:38:17;16.88;;;4.10;;
59145;SDS011;44928;53.074;6.646;2023-05-27T03:40:43;13.52;;;4.00;;
59145;SDS011;44928;53.074;6.646;2023-05-27T03:43:09;16.75;;;3.58;;
59145;SDS011;44928;53.074;6.646;2023-05-27T03:45:34;20.45;;;3.72;;
59145;SDS011;44928;53.074;6.646;2023-05-27T03:48:00;14.05;;;4.10;;
59145;SDS011;44928;53.074;6.646;2023-05-27T03:50:26;13.88;;;3.78;;
59145;SDS011;44928;53.074;6.646;2023-05-27T03:52:52;16.88;;;4.35;;
59145;SDS011;44928;53.074;6.646;2023-05-27T03:55:17;13.40;;;4.22;;
59145;SDS011;44928;53.074;6.646;2023-05-27T03:57:46;16.20;;;3.97;;
59145;SDS011;44928;53.074;6.646;2023-05-27T04:00:12;11.13;;;3.40;;
59145;SDS011;44928;53.074;6.646;2023-05-27T04:02:38;12.93;;;3.58;;
59145;SDS011;44928;53.074;6.646;2023-05-27T04:05:04;13.77;;;4.15;;
59145;SDS011;44928;53.074;6.646;2023-05-27T04:07:30;12.32;;;3.88;;
59145;SDS011;44928;53.074;6.646;2023-05-27T04:09:57;13.57;;;3.65;;
59145;SDS011;44928;53.074;6.646;2023-05-27T04:12:23;15.75;;;4.28;;
59145;SDS011;44928;53.074;6.646;2023-05-27T04:14:49;16.20;;;3.70;;
59145;SDS011;44928;53.074;6.646;2023-05-27T04:17:15;12.38;;;3.42;;
59145;SDS011;44928;53.074;6.646;2023-05-27T04:19:42;12.05;;;3.40;;
59145;SDS011;44928;53.074;6.646;2023-05-27T04:22:08;14.38;;;4.10;;
59145;SDS011;44928;53.074;6.646;2023-05-27T04:24:34;13.70;;;3.70;;
59145;SDS011;44928;53.074;6.646;2023-05-27T04:27:00;13.75;;;3.58;;
59145;SDS011;44928;53.074;6.646;2023-05-27T04:29:27;13.32;;;4.15;;
59145;SDS011;44928;53.074;6.646;2023-05-27T04:31:53;13.88;;;4.18;;
59145;SDS011;44928;53.074;6.646;2023-05-27T04:34:21;17.27;;;4.13;;
59145;SDS011;44928;53.074;6.646;2023-05-27T04:36:47;12.90;;;3.70;;
59145;SDS011;44928;53.074;6.646;2023-05-27T04:39:15;14.50;;;4.05;;
59145;SDS011;44928;53.074;6.646;2023-05-27T04:41:41;14.75;;;3.65;;
59145;SDS011;44928;53.074;6.646;2023-05-27T04:44:07;11.77;;;3.95;;
59145;SDS011;44928;53.074;6.646;2023-05-27T04:46:33;13.38;;;3.60;;
59145;SDS011;44928;53.074;6.646;2023-05-27T04:48:59;11.00;;;3.70;;
59145;SDS011;44928;53.074;6.646;2023-05-27T04:51:25;13.38;;;3.38;;
59145;SDS011;44928;53.074;6.646;2023-05-27T04:53:52;12.93;;;4.00;;
59145;SDS011;44928;53.074;6.646;2023-05-27T04:56:19;10.88;;;3.60;;
59145;SDS011;44928;53.074;6.646;2023-05-27T04:58:45;11.43;;;3.50;;
59145;SDS011;44928;53.074;6.646;2023-05-27T05:01:14;15.55;;;3.75;;
59145;SDS011;44928;53.074;6.646;2023-05-27T05:03:45;11.93;;;3.85;;
59145;SDS011;44928;53.074;6.646;2023-05-27T05:06:27;15.07;;;4.28;;
59145;SDS011;44928;53.074;6.646;2023-05-27T05:08:53;16.52;;;4.53;;
59145;SDS011;44928;53.074;6.646;2023-05-27T05:11:18;16.80;;;3.92;;
59145;SDS011;44928;53.074;6.646;2023-05-27T05:13:44;15.68;;;3.78;;
59145;SDS011;44928;53.074;6.646;2023-05-27T05:16:10;15.35;;;3.90;;
59145;SDS011;44928;53.074;6.646;2023-05-27T05:18:36;17.08;;;4.13;;
59145;SDS011;44928;53.074;6.646;2023-05-27T05:21:02;13.60;;;4.03;;
59145;SDS011;44928;53.074;6.646;2023-05-27T05:23:27;15.55;;;3.30;;
59145;SDS011;44928;53.074;6.646;2023-05-27T05:25:54;11.82;;;3.60;;
59145;SDS011;44928;53.074;6.646;2023-05-27T05:28:23;17.90;;;4.25;;
59145;SDS011;44928;53.074;6.646;2023-05-27T05:30:50;15.40;;;4.07;;
59145;SDS011;44928;53.074;6.646;2023-05-27T05:33:15;13.75;;;3.88;;
59145;SDS011;44928;53.074;6.646;2023-05-27T05:35:41;16.35;;;4.30;;
59145;SDS011;44928;53.074;6.646;2023-05-27T05:38:07;16.13;;;3.70;;
59145;SDS011;44928;53.074;6.646;2023-05-27T05:40:33;15.68;;;4.03;;
59145;SDS011;44928;53.074;6.646;2023-05-27T05:42:58;14.43;;;3.95;;
59145;SDS011;44928;53.074;6.646;2023-05-27T05:45:24;20.77;;;4.38;;
59145;SDS011;44928;53.074;6.646;2023-05-27T05:47:50;14.32;;;3.60;;
59145;SDS011;44928;53.074;6.646;2023-05-27T05:50:16;15.18;;;3.88;;
59145;SDS011;44928;53.074;6.646;2023-05-27T05:52:42;13.30;;;3.35;;
59145;SDS011;44928;53.074;6.646;2023-05-27T05:55:08;14.35;;;3.85;;
59145;SDS011;44928;53.074;6.646;2023-05-27T05:57:34;13.98;;;3.20;;
59145;SDS011;44928;53.074;6.646;2023-05-27T05:59:59;18.35;;;4.20;;
59145;SDS011;44928;53.074;6.646;2023-05-27T06:02:25;13.93;;;3.20;;
59145;SDS011;44928;53.074;6.646;2023-05-27T06:04:51;18.05;;;4.05;;
59145;SDS011;44928;53.074;6.646;2023-05-27T06:07:17;16.75;;;4.20;;
59145;SDS011;44928;53.074;6.646;2023-05-27T06:09:42;16.15;;;3.95;;
59145;SDS011;44928;53.074;6.646;2023-05-27T06:12:09;14.85;;;3.40;;
59145;SDS011;44928;53.074;6.646;2023-05-27T06:14:35;17.00;;;4.20;;
59145;SDS011;44928;53.074;6.646;2023-05-27T06:17:01;14.85;;;4.35;;
59145;SDS011;44928;53.074;6.646;2023-05-27T06:19:26;16.80;;;3.92;;
59145;SDS011;44928;53.074;6.646;2023-05-27T06:21:52;16.77;;;4.57;;
59145;SDS011;44928;53.074;6.646;2023-05-27T06:24:18;14.43;;;3.83;;
59145;SDS011;44928;53.074;6.646;2023-05-27T06:26:44;15.98;;;3.78;;
59145;SDS011;44928;53.074;6.646;2023-05-27T06:29:10;19.98;;;3.90;;
59145;SDS011;44928;53.074;6.646;2023-05-27T06:31:36;15.43;;;4.30;;
59145;SDS011;44928;53.074;6.646;2023-05-27T06:34:01;20.55;;;4.53;;
59145;SDS011;44928;53.074;6.646;2023-05-27T06:36:27;24.75;;;5.43;;
59145;SDS011;44928;53.074;6.646;2023-05-27T06:38:53;19.83;;;4.57;;
59145;SDS011;44928;53.074;6.646;2023-05-27T06:41:19;18.20;;;4.95;;
59145;SDS011;44928;53.074;6.646;2023-05-27T06:43:45;16.17;;;4.38;;
59145;SDS011;44928;53.074;6.646;2023-05-27T06:46:10;19.27;;;5.28;;
59145;SDS011;44928;53.074;6.646;2023-05-27T06:48:36;18.33;;;5.13;;
59145;SDS011;44928;53.074;6.646;2023-05-27T06:51:02;27.08;;;6.18;;
59145;SDS011;44928;53.074;6.646;2023-05-27T06:53:28;20.10;;;6.05;;
59145;SDS011;44928;53.074;6.646;2023-05-27T06:55:54;18.60;;;4.57;;
59145;SDS011;44928;53.074;6.646;2023-05-27T06:58:20;21.67;;;5.15;;
59145;SDS011;44928;53.074;6.646;2023-05-27T07:00:46;19.65;;;4.75;;
59145;SDS011;44928;53.074;6.646;2023-05-27T07:03:12;18.40;;;4.75;;
59145;SDS011;44928;53.074;6.646;2023-05-27T07:05:37;16.98;;;4.72;;
59145;SDS011;44928;53.074;6.646;2023-05-27T07:08:03;20.90;;;5.32;;
59145;SDS011;44928;53.074;6.646;2023-05-27T07:10:30;19.27;;;5.45;;
59145;SDS011;44928;53.074;6.646;2023-05-27T07:12:56;20.05;;;4.95;;
59145;SDS011;44928;53.074;6.646;2023-05-27T07:15:21;16.95;;;4.65;;
59145;SDS011;44928;53.074;6.646;2023-05-27T07:17:47;19.48;;;5.07;;
59145;SDS011;44928;53.074;6.646;2023-05-27T07:20:13;24.42;;;4.90;;
59145;SDS011;44928;53.074;6.646;2023-05-27T07:22:39;20.52;;;4.97;;
59145;SDS011;44928;53.074;6.646;2023-05-27T07:25:05;16.80;;;4.60;;
59145;SDS011;44928;53.074;6.646;2023-05-27T07:27:31;19.30;;;4.15;;
59145;SDS011;44928;53.074;6.646;2023-05-27T07:29:57;17.08;;;3.95;;
59145;SDS011;44928;53.074;6.646;2023-05-27T07:32:22;17.40;;;4.97;;
59145;SDS011;44928;53.074;6.646;2023-05-27T07:34:48;15.02;;;3.85;;
59145;SDS011;44928;53.074;6.646;2023-05-27T07:37:14;22.90;;;5.13;;
59145;SDS011;44928;53.074;6.646;2023-05-27T07:39:43;18.17;;;4.43;;
59145;SDS011;44928;53.074;6.646;2023-05-27T07:42:08;16.95;;;4.10;;
59145;SDS011;44928;53.074;6.646;2023-05-27T07:44:34;17.13;;;4.07;;
59145;SDS011;44928;53.074;6.646;2023-05-27T07:47:00;24.60;;;4.55;;
59145;SDS011;44928;53.074;6.646;2023-05-27T07:49:25;21.08;;;4.65;;
59145;SDS011;44928;53.074;6.646;2023-05-27T07:51:51;20.33;;;4.10;;
59145;SDS011;44928;53.074;6.646;2023-05-27T07:54:17;17.75;;;3.97;;
59145;SDS011;44928;53.074;6.646;2023-05-27T07:56:43;18.17;;;4.32;;
59145;SDS011;44928;53.074;6.646;2023-05-27T07:59:08;17.83;;;4.25;;
59145;SDS011;44928;53.074;6.646;2023-05-27T08:01:34;20.38;;;4.03;;
59145;SDS011;44928;53.074;6.646;2023-05-27T08:04:00;16.80;;;4.57;;
59145;SDS011;44928;53.074;6.646;2023-05-27T08:06:26;23.10;;;5.15;;
59145;SDS011;44928;53.074;6.646;2023-05-27T08:08:51;15.35;;;4.20;;
59145;SDS011;44928;53.074;6.646;2023-05-27T08:11:17;13.32;;;3.83;;
59145;SDS011;44928;53.074;6.646;2023-05-27T08:13:43;17.88;;;4.18;;
59145;SDS011;44928;53.074;6.646;2023-05-27T08:16:09;15.52;;;4.40;;
59145;SDS011;44928;53.074;6.646;2023-05-27T08:18:36;18.02;;;3.97;;
59145;SDS011;44928;53.074;6.646;2023-05-27T08:21:02;16.50;;;4.00;;
59145;SDS011;44928;53.074;6.646;2023-05-27T08:23:28;20.88;;;4.47;;
59145;SDS011;44928;53.074;6.646;2023-05-27T08:25:54;18.90;;;3.72;;
59145;SDS011;44928;53.074;6.646;2023-05-27T08:28:20;15.68;;;4.07;;
59145;SDS011;44928;53.074;6.646;2023-05-27T08:30:46;20.63;;;5.05;;
59145;SDS011;44928;53.074;6.646;2023-05-27T08:33:12;21.85;;;4.55;;
59145;SDS011;44928;53.074;6.646;2023-05-27T08:35:38;16.85;;;3.95;;
59145;SDS011;44928;53.074;6.646;2023-05-27T08:38:04;19.60;;;4.13;;
59145;SDS011;44928;53.074;6.646;2023-05-27T08:40:30;15.55;;;4.25;;
59145;SDS011;44928;53.074;6.646;2023-05-27T08:42:56;14.85;;;3.90;;
59145;SDS011;44928;53.074;6.646;2023-05-27T08:45:21;17.30;;;4.05;;
59145;SDS011;44928;53.074;6.646;2023-05-27T08:47:47;18.15;;;5.18;;
59145;SDS011;44928;53.074;6.646;2023-05-27T08:50:17;22.95;;;4.68;;
59145;SDS011;44928;53.074;6.646;2023-05-27T08:52:47;15.35;;;3.90;;
59145;SDS011;44928;53.074;6.646;2023-05-27T08:55:18;17.15;;;4.32;;
59145;SDS011;44928;53.074;6.646;2023-05-27T08:57:51;16.33;;;4.05;;
59145;SDS011;44928;53.074;6.646;2023-05-27T09:00:20;19.42;;;4.97;;
59145;SDS011;44928;53.074;6.646;2023-05-27T09:02:47;19.02;;;4.85;;
59145;SDS011;44928;53.074;6.646;2023-05-27T09:05:13;18.73;;;5.10;;
59145;SDS011;44928;53.074;6.646;2023-05-27T09:07:41;14.88;;;4.15;;
59145;SDS011;44928;53.074;6.646;2023-05-27T09:10:07;19.70;;;4.35;;
59145;SDS011;44928;53.074;6.646;2023-05-27T09:12:33;16.73;;;4.55;;
59145;SDS011;44928;53.074;6.646;2023-05-27T09:15:00;17.52;;;4.60;;
59145;SDS011;44928;53.074;6.646;2023-05-27T09:17:26;16.77;;;4.18;;
59145;SDS011;44928;53.074;6.646;2023-05-27T09:19:53;17.75;;;4.18;;
59145;SDS011;44928;53.074;6.646;2023-05-27T09:22:20;18.35;;;5.20;;
59145;SDS011;44928;53.074;6.646;2023-05-27T09:24:47;14.05;;;3.90;;
59145;SDS011;44928;53.074;6.646;2023-05-27T09:27:14;19.00;;;4.30;;
59145;SDS011;44928;53.074;6.646;2023-05-27T09:29:40;16.60;;;4.15;;
59145;SDS011;44928;53.074;6.646;2023-05-27T09:32:06;14.85;;;4.53;;
59145;SDS011;44928;53.074;6.646;2023-05-27T09:34:39;18.15;;;4.68;;
59145;SDS011;44928;53.074;6.646;2023-05-27T09:37:05;18.48;;;4.13;;
59145;SDS011;44928;53.074;6.646;2023-05-27T09:39:37;15.65;;;4.50;;
59145;SDS011;44928;53.074;6.646;2023-05-27T09:42:04;19.73;;;4.90;;
59145;SDS011;44928;53.074;6.646;2023-05-27T09:44:34;27.88;;;7.65;;
59145;SDS011;44928;53.074;6.646;2023-05-27T09:47:04;18.23;;;4.53;;
59145;SDS011;44928;53.074;6.646;2023-05-27T09:49:32;20.55;;;4.00;;
59145;SDS011;44928;53.074;6.646;2023-05-27T09:52:05;14.98;;;4.13;;
59145;SDS011;44928;53.074;6.646;2023-05-27T09:54:32;15.30;;;4.30;;
59145;SDS011;44928;53.074;6.646;2023-05-27T09:56:58;15.30;;;4.00;;
59145;SDS011;44928;53.074;6.646;2023-05-27T09:59:25;26.45;;;8.00;;
59145;SDS011;44928;53.074;6.646;2023-05-27T10:01:51;17.77;;;4.45;;
59145;SDS011;44928;53.074;6.646;2023-05-27T10:04:18;16.30;;;4.30;;
59145;SDS011;44928;53.074;6.646;2023-05-27T10:06:45;17.65;;;4.80;;
59145;SDS011;44928;53.074;6.646;2023-05-27T10:09:11;14.65;;;3.67;;
59145;SDS011;44928;53.074;6.646;2023-05-27T10:11:38;15.07;;;3.72;;
59145;SDS011;44928;53.074;6.646;2023-05-27T10:14:05;17.40;;;4.28;;
59145;SDS011;44928;53.074;6.646;2023-05-27T10:16:32;17.98;;;4.25;;
59145;SDS011;44928;53.074;6.646;2023-05-27T10:19:00;14.25;;;3.90;;
59145;SDS011;44928;53.074;6.646;2023-05-27T10:21:27;15.13;;;3.75;;
59145;SDS011;44928;53.074;6.646;2023-05-27T10:24:01;14.95;;;3.75;;
59145;SDS011;44928;53.074;6.646;2023-05-27T10:26:31;18.45;;;4.22;;
59145;SDS011;44928;53.074;6.646;2023-05-27T10:29:04;15.43;;;3.90;;
59145;SDS011;44928;53.074;6.646;2023-05-27T10:31:33;23.08;;;4.32;;
59145;SDS011;44928;53.074;6.646;2023-05-27T10:34:03;15.20;;;4.13;;
59145;SDS011;44928;53.074;6.646;2023-05-27T10:36:31;12.80;;;3.88;;
59145;SDS011;44928;53.074;6.646;2023-05-27T10:39:06;15.18;;;3.72;;
59145;SDS011;44928;53.074;6.646;2023-05-27T10:41:41;16.00;;;3.90;;
59145;SDS011;44928;53.074;6.646;2023-05-27T10:44:13;15.90;;;4.03;;
59145;SDS011;44928;53.074;6.646;2023-05-27T10:46:49;13.68;;;3.80;;
59145;SDS011;44928;53.074;6.646;2023-05-27T10:49:23;11.45;;;3.40;;
59145;SDS011;44928;53.074;6.646;2023-05-27T10:51:55;14.30;;;4.25;;
59145;SDS011;44928;53.074;6.646;2023-05-27T10:54:24;13.45;;;4.32;;
59145;SDS011;44928;53.074;6.646;2023-05-27T10:56:51;13.63;;;4.15;;
59145;SDS011;44928;53.074;6.646;2023-05-27T10:59:19;14.77;;;3.67;;
59145;SDS011;44928;53.074;6.646;2023-05-27T11:01:51;15.70;;;3.97;;
59145;SDS011;44928;53.074;6.646;2023-05-27T11:04:38;13.00;;;3.63;;
59145;SDS011;44928;53.074;6.646;2023-05-27T11:07:04;12.40;;;3.90;;
59145;SDS011;44928;53.074;6.646;2023-05-27T11:09:30;12.98;;;4.07;;
59145;SDS011;44928;53.074;6.646;2023-05-27T11:12:01;15.13;;;4.30;;
59145;SDS011;44928;53.074;6.646;2023-05-27T11:14:27;14.88;;;4.13;;
59145;SDS011;44928;53.074;6.646;2023-05-27T11:16:53;15.02;;;4.07;;
59145;SDS011;44928;53.074;6.646;2023-05-27T11:19:20;12.68;;;4.05;;
59145;SDS011;44928;53.074;6.646;2023-05-27T11:21:46;14.82;;;3.72;;
59145;SDS011;44928;53.074;6.646;2023-05-27T11:24:19;16.30;;;4.50;;
59145;SDS011;44928;53.074;6.646;2023-05-27T11:26:47;15.25;;;4.30;;
59145;SDS011;44928;53.074;6.646;2023-05-27T11:29:13;12.18;;;3.63;;
59145;SDS011;44928;53.074;6.646;2023-05-27T11:31:40;17.20;;;4.10;;
59145;SDS011;44928;53.074;6.646;2023-05-27T11:34:12;14.75;;;4.57;;
59145;SDS011;44928;53.074;6.646;2023-05-27T11:36:48;14.02;;;4.43;;
59145;SDS011;44928;53.074;6.646;2023-05-27T11:39:14;12.98;;;4.30;;
59145;SDS011;44928;53.074;6.646;2023-05-27T11:41:51;13.82;;;4.13;;
59145;SDS011;44928;53.074;6.646;2023-05-27T11:44:18;14.55;;;4.97;;
59145;SDS011;44928;53.074;6.646;2023-05-27T11:46:46;14.60;;;4.40;;
59145;SDS011;44928;53.074;6.646;2023-05-27T11:49:13;14.90;;;4.07;;
59145;SDS011;44928;53.074;6.646;2023-05-27T11:51:41;15.23;;;4.40;;
59145;SDS011;44928;53.074;6.646;2023-05-27T11:54:29;16.33;;;4.57;;
59145;SDS011;44928;53.074;6.646;2023-05-27T11:56:56;12.45;;;4.10;;
59145;SDS011;44928;53.074;6.646;2023-05-27T11:59:24;15.68;;;4.40;;
59145;SDS011;44928;53.074;6.646;2023-05-27T12:01:51;14.25;;;4.53;;
59145;SDS011;44928;53.074;6.646;2023-05-27T12:04:19;14.93;;;4.60;;
59145;SDS011;44928;53.074;6.646;2023-05-27T12:06:45;12.45;;;4.20;;
59145;SDS011;44928;53.074;6.646;2023-05-27T12:09:12;16.77;;;4.93;;
59145;SDS011;44928;53.074;6.646;2023-05-27T12:11:39;17.02;;;5.00;;
59145;SDS011;44928;53.074;6.646;2023-05-27T12:14:05;14.27;;;4.82;;
59145;SDS011;44928;53.074;6.646;2023-05-27T12:16:34;13.95;;;5.00;;
59145;SDS011;44928;53.074;6.646;2023-05-27T12:19:00;15.27;;;4.30;;
59145;SDS011;44928;53.074;6.646;2023-05-27T12:21:30;13.35;;;4.40;;
59145;SDS011;44928;53.074;6.646;2023-05-27T12:23:55;13.75;;;4.50;;
59145;SDS011;44928;53.074;6.646;2023-05-27T12:26:21;15.93;;;4.60;;
59145;SDS011;44928;53.074;6.646;2023-05-27T12:28:47;18.05;;;4.93;;
59145;SDS011;44928;53.074;6.646;2023-05-27T12:31:13;15.05;;;4.10;;
59145;SDS011;44928;53.074;6.646;2023-05-27T12:33:40;17.10;;;4.93;;
59145;SDS011;44928;53.074;6.646;2023-05-27T12:36:06;13.65;;;3.67;;
59145;SDS011;44928;53.074;6.646;2023-05-27T12:38:32;12.23;;;4.75;;
59145;SDS011;44928;53.074;6.646;2023-05-27T12:40:58;15.93;;;4.30;;
59145;SDS011;44928;53.074;6.646;2023-05-27T12:43:24;19.75;;;5.25;;
59145;SDS011;44928;53.074;6.646;2023-05-27T12:45:50;13.27;;;4.05;;
59145;SDS011;44928;53.074;6.646;2023-05-27T12:48:15;15.55;;;4.45;;
59145;SDS011;44928;53.074;6.646;2023-05-27T12:50:42;16.17;;;4.53;;
59145;SDS011;44928;53.074;6.646;2023-05-27T12:53:09;16.38;;;4.45;;
59145;SDS011;44928;53.074;6.646;2023-05-27T12:55:35;13.95;;;4.28;;
59145;SDS011;44928;53.074;6.646;2023-05-27T12:58:02;13.30;;;4.78;;
59145;SDS011;44928;53.074;6.646;2023-05-27T13:00:28;13.57;;;4.38;;
59145;SDS011;44928;53.074;6.646;2023-05-27T13:02:54;16.17;;;4.60;;
59145;SDS011;44928;53.074;6.646;2023-05-27T13:05:20;13.38;;;4.60;;
59145;SDS011;44928;53.074;6.646;2023-05-27T13:07:53;13.85;;;4.90;;
59145;SDS011;44928;53.074;6.646;2023-05-27T13:10:22;13.35;;;4.35;;
59145;SDS011;44928;53.074;6.646;2023-05-27T13:12:49;14.63;;;4.20;;
59145;SDS011;44928;53.074;6.646;2023-05-27T13:15:15;13.30;;;4.30;;
59145;SDS011;44928;53.074;6.646;2023-05-27T13:17:43;13.05;;;4.55;;
59145;SDS011;44928;53.074;6.646;2023-05-27T13:20:10;23.85;;;5.60;;
59145;SDS011;44928;53.074;6.646;2023-05-27T13:22:37;12.95;;;4.40;;
59145;SDS011;44928;53.074;6.646;2023-05-27T13:25:03;21.42;;;5.57;;
59145;SDS011;44928;53.074;6.646;2023-05-27T13:27:29;13.85;;;5.47;;
59145;SDS011;44928;53.074;6.646;2023-05-27T13:29:55;15.55;;;4.82;;
59145;SDS011;44928;53.074;6.646;2023-05-27T13:32:21;16.30;;;4.53;;
59145;SDS011;44928;53.074;6.646;2023-05-27T13:34:47;16.67;;;4.25;;
59145;SDS011;44928;53.074;6.646;2023-05-27T13:37:12;16.33;;;4.75;;
59145;SDS011;44928;53.074;6.646;2023-05-27T13:39:39;16.23;;;4.97;;
59145;SDS011;44928;53.074;6.646;2023-05-27T13:42:09;20.10;;;4.85;;
59145;SDS011;44928;53.074;6.646;2023-05-27T13:44:35;14.98;;;4.15;;
59145;SDS011;44928;53.074;6.646;2023-05-27T13:47:01;16.02;;;4.47;;
59145;SDS011;44928;53.074;6.646;2023-05-27T13:49:26;14.70;;;3.75;;
59145;SDS011;44928;53.074;6.646;2023-05-27T13:51:52;16.83;;;4.20;;
59145;SDS011;44928;53.074;6.646;2023-05-27T13:54:18;14.27;;;4.50;;
59145;SDS011;44928;53.074;6.646;2023-05-27T13:56:44;17.63;;;5.00;;
59145;SDS011;44928;53.074;6.646;2023-05-27T13:59:10;12.38;;;4.93;;
59145;SDS011;44928;53.074;6.646;2023-05-27T14:01:37;13.77;;;4.40;;
59145;SDS011;44928;53.074;6.646;2023-05-27T14:04:04;14.60;;;4.70;;
59145;SDS011;44928;53.074;6.646;2023-05-27T14:06:30;15.55;;;4.35;;
59145;SDS011;44928;53.074;6.646;2023-05-27T14:08:56;15.20;;;4.53;;
59145;SDS011;44928;53.074;6.646;2023-05-27T14:11:22;16.45;;;4.28;;
59145;SDS011;44928;53.074;6.646;2023-05-27T14:13:49;15.30;;;4.75;;
59145;SDS011;44928;53.074;6.646;2023-05-27T14:16:15;15.20;;;4.35;;
59145;SDS011;44928;53.074;6.646;2023-05-27T14:18:41;14.38;;;4.55;;
59145;SDS011;44928;53.074;6.646;2023-05-27T14:21:08;12.23;;;4.03;;
59145;SDS011;44928;53.074;6.646;2023-05-27T14:23:34;12.57;;;4.43;;
59145;SDS011;44928;53.074;6.646;2023-05-27T14:26:00;16.48;;;4.53;;
59145;SDS011;44928;53.074;6.646;2023-05-27T14:28:26;20.23;;;4.70;;
59145;SDS011;44928;53.074;6.646;2023-05-27T14:30:51;17.20;;;4.53;;
59145;SDS011;44928;53.074;6.646;2023-05-27T14:33:18;12.93;;;4.53;;
59145;SDS011;44928;53.074;6.646;2023-05-27T14:35:44;16.83;;;4.80;;